Juan Diego — 5BEC4 — position and weather

sailwx.info

Track history (hours):
 
Tides and Currents Weather Stations Pressure Air Temp Water Temp Dewpoint Dewpoint Depression Visibility Wind Speed Wind Dir Waves Ship Positions

Juan Diego

Last reported at 2018-Apr-22 01:21 UTC. Time now 2018-Apr-25 14:16 UTC.
Position N 21°60' W 089°28'.

Length 100 m; draft 4.7 m.

Type: Cargo ship. MMSI: 212370000.

Date/timePositionNaut miles runAvg speedWind from/ knotsBaromVisibWave heightAir tempDewpointWater temp
2018-Apr-22 01:21N 21°60' W 089°28'513.0
2018-Apr-22 01:00N 21°56' W 089°30'612.9
2018-Apr-22 00:30N 21°50' W 089°33'813.2
2018-Apr-21 23:56N 21°43' W 089°35'613.0
2018-Apr-21 23:26N 21°37' W 089°38'612.9
2018-Apr-21 23:00N 21°31' W 089°39'612.8
2018-Apr-21 22:30N 21°25' W 089°42'5 9.5
2018-Apr-21 22:01N 21°21' W 089°40'0 0.1
2018-Apr-21 21:30N 21°21' W 089°41'0 0.0
2018-Apr-21 21:00N 21°21' W 089°41'0 0.0
2018-Apr-21 20:30N 21°21' W 089°41'0 0.0
2018-Apr-21 20:00N 21°21' W 089°41'0 0.0
2018-Apr-21 19:30N 21°21' W 089°41'0 0.0
2018-Apr-21 19:00N 21°21' W 089°41'0 0.0
2018-Apr-21 18:30N 21°21' W 089°41'0 0.0
2018-Apr-21 18:00N 21°21' W 089°41'0 0.0
2018-Apr-21 17:30N 21°21' W 089°41'0 0.0
2018-Apr-21 17:00N 21°21' W 089°41'0 0.0
2018-Apr-21 16:30N 21°21' W 089°41'0 0.0
2018-Apr-21 16:00N 21°21' W 089°41'0 0.0
2018-Apr-21 15:30N 21°21' W 089°41'0 0.0
2018-Apr-21 15:00N 21°21' W 089°41'0 0.0
2018-Apr-21 14:30N 21°21' W 089°41'0 0.0
2018-Apr-21 14:00N 21°21' W 089°41'0 0.0
2018-Apr-21 13:30N 21°21' W 089°41'0 0.0
2018-Apr-21 13:00N 21°21' W 089°41'0 0.0
2018-Apr-21 12:30N 21°21' W 089°41'0 0.0
2018-Apr-21 12:00N 21°21' W 089°41'0 0.0
2018-Apr-21 11:30N 21°21' W 089°41'0 0.0
2018-Apr-21 11:00N 21°21' W 089°41'0 0.0
2018-Apr-21 10:30N 21°21' W 089°41'0 0.0
2018-Apr-21 10:00N 21°21' W 089°41'0 0.0
2018-Apr-21 09:30N 21°21' W 089°41'0 0.0
2018-Apr-21 09:00N 21°21' W 089°41'0 0.0
2018-Apr-21 08:30N 21°21' W 089°41'0 0.0
2018-Apr-21 08:00N 21°21' W 089°41'0 0.0
2018-Apr-21 07:30N 21°21' W 089°41'0 0.0
2018-Apr-21 07:00N 21°21' W 089°41'0 0.0
2018-Apr-21 06:30N 21°21' W 089°41'0 0.0
2018-Apr-21 06:00N 21°21' W 089°41'0 0.0
2018-Apr-21 05:30N 21°21' W 089°41'0 0.0
2018-Apr-21 05:00N 21°21' W 089°41'0 0.0
2018-Apr-21 04:30N 21°21' W 089°41'0 0.0
2018-Apr-21 04:00N 21°21' W 089°41'0 0.0
2018-Apr-21 03:30N 21°21' W 089°41'0 0.0
2018-Apr-21 03:00N 21°21' W 089°41'0 0.0
2018-Apr-21 02:30N 21°21' W 089°41'0 0.0
2018-Apr-21 02:00N 21°21' W 089°41'0 0.0
2018-Apr-21 01:30N 21°21' W 089°41'0 0.0
2018-Apr-21 01:00N 21°21' W 089°41'0 0.0
2018-Apr-21 00:30N 21°21' W 089°41'0 0.0
2018-Apr-21 00:00N 21°21' W 089°41'0 0.0
2018-Apr-20 23:30N 21°21' W 089°41'0 0.0
2018-Apr-20 23:00N 21°21' W 089°41'0 0.0
2018-Apr-20 22:30N 21°21' W 089°41'0 0.0
2018-Apr-20 22:00N 21°21' W 089°41'0 0.0
2018-Apr-20 21:18N 21°21' W 089°41'0 0.0
2018-Apr-20 21:00N 21°21' W 089°41'0 0.0
2018-Apr-20 20:30N 21°21' W 089°41'0 0.0
2018-Apr-20 20:00N 21°21' W 089°41'0 0.0
2018-Apr-20 19:30N 21°21' W 089°41'0 0.0
2018-Apr-20 19:00N 21°21' W 089°41'0 0.0
2018-Apr-20 18:30N 21°21' W 089°41'1 1.4
2018-Apr-20 18:01N 21°21' W 089°41'4 8.0
2018-Apr-20 17:31N 21°25' W 089°42'612.9
2018-Apr-20 17:01N 21°31' W 089°41'713.4
2018-Apr-20 16:30N 21°37' W 089°38'713.3
2018-Apr-20 16:00N 21°43' W 089°35'53112.3
2018-Apr-18 20:44N 29°55' W 085°52'312.9
2018-Apr-18 20:31N 29°58' W 085°51'  
2018-Apr-15 06:40N 21°50' W 089°32'213.2
2018-Apr-15 06:30N 21°48' W 089°33'713.3
2018-Apr-15 06:00N 21°42' W 089°36'713.2
2018-Apr-15 05:30N 21°36' W 089°38'713.2
2018-Apr-15 05:00N 21°29' W 089°41'612.6
2018-Apr-15 04:30N 21°23' W 089°42'3 5.3
2018-Apr-15 04:00N 21°21' W 089°41'0 0.0
2018-Apr-15 03:28N 21°21' W 089°41'0 0.0
2018-Apr-15 02:58N 21°21' W 089°41'0 0.0
2018-Apr-15 02:28N 21°21' W 089°41'0 0.0
2018-Apr-15 01:55N 21°21' W 089°41'0 0.0
2018-Apr-15 01:28N 21°21' W 089°41'0 0.0
2018-Apr-15 00:58N 21°21' W 089°41'0 0.0
2018-Apr-15 00:28N 21°21' W 089°41'0 0.0
2018-Apr-14 23:58N 21°21' W 089°41'0 0.0
2018-Apr-14 23:28N 21°21' W 089°41'0 0.0
2018-Apr-14 22:58N 21°21' W 089°41'0 0.0
2018-Apr-14 22:28N 21°21' W 089°41'0 0.0
2018-Apr-14 21:58N 21°21' W 089°41'0 0.0
2018-Apr-14 21:28N 21°21' W 089°41'0 0.0
2018-Apr-14 20:58N 21°21' W 089°41'0 0.0
2018-Apr-14 20:28N 21°21' W 089°41'0 0.0
2018-Apr-14 19:58N 21°21' W 089°41'0 0.0
2018-Apr-14 19:28N 21°21' W 089°41'0 0.0
2018-Apr-14 18:58N 21°21' W 089°41'0 0.0
2018-Apr-14 18:28N 21°21' W 089°41'0 0.0
2018-Apr-14 17:58N 21°21' W 089°41'0 0.0
2018-Apr-14 17:28N 21°21' W 089°41'0 0.0
2018-Apr-14 16:58N 21°21' W 089°41'0 0.0
2018-Apr-14 16:28N 21°21' W 089°41'0 0.0
2018-Apr-14 15:58N 21°21' W 089°41'0 0.0
2018-Apr-14 15:28N 21°21' W 089°41'0 0.0
2018-Apr-14 14:58N 21°21' W 089°41'0 0.0
2018-Apr-14 14:28N 21°21' W 089°41'0 0.0
2018-Apr-14 13:58N 21°21' W 089°41'0 0.0
2018-Apr-14 13:28N 21°21' W 089°41'0 0.0
2018-Apr-14 12:58N 21°21' W 089°41'0 0.0
2018-Apr-14 12:28N 21°21' W 089°41'0 0.0
2018-Apr-14 11:58N 21°21' W 089°41'0 0.0
2018-Apr-14 11:28N 21°21' W 089°41'0 0.0
2018-Apr-14 10:58N 21°21' W 089°41'0 0.0
2018-Apr-14 10:28N 21°21' W 089°41'0 0.0
2018-Apr-14 09:58N 21°21' W 089°41'0 0.0
2018-Apr-14 09:28N 21°21' W 089°41'0 0.0
2018-Apr-14 08:58N 21°21' W 089°41'0 0.0
2018-Apr-14 08:28N 21°21' W 089°41'0 0.0
2018-Apr-14 07:58N 21°21' W 089°41'0 0.0
2018-Apr-14 07:28N 21°21' W 089°41'0 0.0
2018-Apr-14 06:58N 21°21' W 089°41'0 0.0
2018-Apr-14 06:28N 21°21' W 089°41'0 0.0
2018-Apr-14 05:58N 21°21' W 089°41'0 0.0
2018-Apr-14 05:28N 21°21' W 089°41'0 0.0
2018-Apr-14 04:58N 21°21' W 089°41'0 0.0
2018-Apr-14 04:28N 21°21' W 089°41'0 0.0
2018-Apr-14 03:58N 21°21' W 089°41'0 0.0
2018-Apr-14 03:28N 21°21' W 089°41'0 0.0
2018-Apr-14 02:58N 21°21' W 089°41'0 0.0
2018-Apr-14 02:28N 21°21' W 089°41'0 0.0
2018-Apr-14 01:58N 21°21' W 089°41'0 0.0
2018-Apr-14 01:28N 21°21' W 089°41'0 0.0
2018-Apr-14 00:58N 21°21' W 089°41'0 0.0
2018-Apr-14 00:28N 21°21' W 089°41'0 0.0
2018-Apr-13 23:58N 21°21' W 089°41'0 0.0
2018-Apr-13 23:28N 21°21' W 089°41'0 0.0
2018-Apr-13 22:58N 21°21' W 089°41'0 0.0
2018-Apr-13 22:28N 21°21' W 089°41'0 0.0
2018-Apr-13 21:55N 21°21' W 089°41'0 0.0
2018-Apr-13 21:28N 21°21' W 089°41'0 0.0
2018-Apr-13 20:58N 21°21' W 089°41'0 0.0
2018-Apr-13 20:28N 21°21' W 089°41'0 0.0
2018-Apr-13 19:58N 21°21' W 089°41'0 0.0
2018-Apr-13 19:28N 21°21' W 089°41'0 0.0
2018-Apr-13 18:58N 21°21' W 089°41'0 0.0
2018-Apr-13 18:28N 21°21' W 089°41'1 1.5
2018-Apr-13 18:01N 21°21' W 089°41'3 6.3
2018-Apr-13 17:31N 21°24' W 089°42'1610.7
2018-Apr-13 16:01N 21°39' W 089°37'510.5
2018-Apr-13 15:31N 21°44' W 089°35'1510.4
2018-Apr-13 14:06N 21°57' W 089°29'410.3
2018-Apr-13 13:42N 22°01' W 089°27'510.3
2018-Apr-13 13:14N 22°06' W 089°25'910.3
2018-Apr-13 12:21N 22°14' W 089°21'410.5
2018-Apr-13 12:00N 22°17' W 089°20'  
Track history (hours):
 
Tides and Currents Weather Stations Pressure Air Temp Water Temp Dewpoint Dewpoint Depression Visibility Wind Speed Wind Dir Waves Ship Positions

Juan Diego

Last reported at 2018-Apr-22 01:21 UTC. Time now 2018-Apr-25 14:16 UTC.
Position N 21°60' W 089°28'.

Length 100 m; draft 4.7 m.

Type: Cargo ship. MMSI: 212370000.

Date/timePositionNaut miles runAvg speedWind from/ knotsBaromVisibWave heightAir tempDewpointWater temp
2018-Apr-22 01:21N 21°60' W 089°28'513.0
2018-Apr-22 01:00N 21°56' W 089°30'612.9
2018-Apr-22 00:30N 21°50' W 089°33'813.2
2018-Apr-21 23:56N 21°43' W 089°35'613.0
2018-Apr-21 23:26N 21°37' W 089°38'612.9
2018-Apr-21 23:00N 21°31' W 089°39'612.8
2018-Apr-21 22:30N 21°25' W 089°42'5 9.5
2018-Apr-21 22:01N 21°21' W 089°40'0 0.1
2018-Apr-21 21:30N 21°21' W 089°41'0 0.0
2018-Apr-21 21:00N 21°21' W 089°41'0 0.0
2018-Apr-21 20:30N 21°21' W 089°41'0 0.0
2018-Apr-21 20:00N 21°21' W 089°41'0 0.0
2018-Apr-21 19:30N 21°21' W 089°41'0 0.0
2018-Apr-21 19:00N 21°21' W 089°41'0 0.0
2018-Apr-21 18:30N 21°21' W 089°41'0 0.0
2018-Apr-21 18:00N 21°21' W 089°41'0 0.0
2018-Apr-21 17:30N 21°21' W 089°41'0 0.0
2018-Apr-21 17:00N 21°21' W 089°41'0 0.0
2018-Apr-21 16:30N 21°21' W 089°41'0 0.0
2018-Apr-21 16:00N 21°21' W 089°41'0 0.0
2018-Apr-21 15:30N 21°21' W 089°41'0 0.0
2018-Apr-21 15:00N 21°21' W 089°41'0 0.0
2018-Apr-21 14:30N 21°21' W 089°41'0 0.0
2018-Apr-21 14:00N 21°21' W 089°41'0 0.0
2018-Apr-21 13:30N 21°21' W 089°41'0 0.0
2018-Apr-21 13:00N 21°21' W 089°41'0 0.0
2018-Apr-21 12:30N 21°21' W 089°41'0 0.0
2018-Apr-21 12:00N 21°21' W 089°41'0 0.0
2018-Apr-21 11:30N 21°21' W 089°41'0 0.0
2018-Apr-21 11:00N 21°21' W 089°41'0 0.0
2018-Apr-21 10:30N 21°21' W 089°41'0 0.0
2018-Apr-21 10:00N 21°21' W 089°41'0 0.0
2018-Apr-21 09:30N 21°21' W 089°41'0 0.0
2018-Apr-21 09:00N 21°21' W 089°41'0 0.0
2018-Apr-21 08:30N 21°21' W 089°41'0 0.0
2018-Apr-21 08:00N 21°21' W 089°41'0 0.0
2018-Apr-21 07:30N 21°21' W 089°41'0 0.0
2018-Apr-21 07:00N 21°21' W 089°41'0 0.0
2018-Apr-21 06:30N 21°21' W 089°41'0 0.0
2018-Apr-21 06:00N 21°21' W 089°41'0 0.0
2018-Apr-21 05:30N 21°21' W 089°41'0 0.0
2018-Apr-21 05:00N 21°21' W 089°41'0 0.0
2018-Apr-21 04:30N 21°21' W 089°41'0 0.0
2018-Apr-21 04:00N 21°21' W 089°41'0 0.0
2018-Apr-21 03:30N 21°21' W 089°41'0 0.0
2018-Apr-21 03:00N 21°21' W 089°41'0 0.0
2018-Apr-21 02:30N 21°21' W 089°41'0 0.0
2018-Apr-21 02:00N 21°21' W 089°41'0 0.0
2018-Apr-21 01:30N 21°21' W 089°41'0 0.0
2018-Apr-21 01:00N 21°21' W 089°41'0 0.0
2018-Apr-21 00:30N 21°21' W 089°41'0 0.0
2018-Apr-21 00:00N 21°21' W 089°41'0 0.0
2018-Apr-20 23:30N 21°21' W 089°41'0 0.0
2018-Apr-20 23:00N 21°21' W 089°41'0 0.0
2018-Apr-20 22:30N 21°21' W 089°41'0 0.0
2018-Apr-20 22:00N 21°21' W 089°41'0 0.0
2018-Apr-20 21:18N 21°21' W 089°41'0 0.0
2018-Apr-20 21:00N 21°21' W 089°41'0 0.0
2018-Apr-20 20:30N 21°21' W 089°41'0 0.0
2018-Apr-20 20:00N 21°21' W 089°41'0 0.0
2018-Apr-20 19:30N 21°21' W 089°41'0 0.0
2018-Apr-20 19:00N 21°21' W 089°41'0 0.0
2018-Apr-20 18:30N 21°21' W 089°41'1 1.4
2018-Apr-20 18:01N 21°21' W 089°41'4 8.0
2018-Apr-20 17:31N 21°25' W 089°42'612.9
2018-Apr-20 17:01N 21°31' W 089°41'713.4
2018-Apr-20 16:30N 21°37' W 089°38'713.3
2018-Apr-20 16:00N 21°43' W 089°35'53112.3
2018-Apr-18 20:44N 29°55' W 085°52'312.9
2018-Apr-18 20:31N 29°58' W 085°51'  
2018-Apr-15 06:40N 21°50' W 089°32'213.2
2018-Apr-15 06:30N 21°48' W 089°33'713.3
2018-Apr-15 06:00N 21°42' W 089°36'713.2
2018-Apr-15 05:30N 21°36' W 089°38'713.2
2018-Apr-15 05:00N 21°29' W 089°41'612.6
2018-Apr-15 04:30N 21°23' W 089°42'3 5.3
2018-Apr-15 04:00N 21°21' W 089°41'0 0.0
2018-Apr-15 03:28N 21°21' W 089°41'0 0.0
2018-Apr-15 02:58N 21°21' W 089°41'0 0.0
2018-Apr-15 02:28N 21°21' W 089°41'0 0.0
2018-Apr-15 01:55N 21°21' W 089°41'0 0.0
2018-Apr-15 01:28N 21°21' W 089°41'0 0.0
2018-Apr-15 00:58N 21°21' W 089°41'0 0.0
2018-Apr-15 00:28N 21°21' W 089°41'0 0.0
2018-Apr-14 23:58N 21°21' W 089°41'0 0.0
2018-Apr-14 23:28N 21°21' W 089°41'0 0.0
2018-Apr-14 22:58N 21°21' W 089°41'0 0.0
2018-Apr-14 22:28N 21°21' W 089°41'0 0.0
2018-Apr-14 21:58N 21°21' W 089°41'0 0.0
2018-Apr-14 21:28N 21°21' W 089°41'0 0.0
2018-Apr-14 20:58N 21°21' W 089°41'0 0.0
2018-Apr-14 20:28N 21°21' W 089°41'0 0.0
2018-Apr-14 19:58N 21°21' W 089°41'0 0.0
2018-Apr-14 19:28N 21°21' W 089°41'0 0.0
2018-Apr-14 18:58N 21°21' W 089°41'0 0.0
2018-Apr-14 18:28N 21°21' W 089°41'0 0.0
2018-Apr-14 17:58N 21°21' W 089°41'0 0.0
2018-Apr-14 17:28N 21°21' W 089°41'0 0.0
2018-Apr-14 16:58N 21°21' W 089°41'0 0.0
2018-Apr-14 16:28N 21°21' W 089°41'0 0.0
2018-Apr-14 15:58N 21°21' W 089°41'0 0.0
2018-Apr-14 15:28N 21°21' W 089°41'0 0.0
2018-Apr-14 14:58N 21°21' W 089°41'0 0.0
2018-Apr-14 14:28N 21°21' W 089°41'0 0.0
2018-Apr-14 13:58N 21°21' W 089°41'0 0.0
2018-Apr-14 13:28N 21°21' W 089°41'0 0.0
2018-Apr-14 12:58N 21°21' W 089°41'0 0.0
2018-Apr-14 12:28N 21°21' W 089°41'0 0.0
2018-Apr-14 11:58N 21°21' W 089°41'0 0.0
2018-Apr-14 11:28N 21°21' W 089°41'0 0.0
2018-Apr-14 10:58N 21°21' W 089°41'0 0.0
2018-Apr-14 10:28N 21°21' W 089°41'0 0.0
2018-Apr-14 09:58N 21°21' W 089°41'0 0.0
2018-Apr-14 09:28N 21°21' W 089°41'0 0.0
2018-Apr-14 08:58N 21°21' W 089°41'0 0.0
2018-Apr-14 08:28N 21°21' W 089°41'0 0.0
2018-Apr-14 07:58N 21°21' W 089°41'0 0.0
2018-Apr-14 07:28N 21°21' W 089°41'0 0.0
2018-Apr-14 06:58N 21°21' W 089°41'0 0.0
2018-Apr-14 06:28N 21°21' W 089°41'0 0.0
2018-Apr-14 05:58N 21°21' W 089°41'0 0.0
2018-Apr-14 05:28N 21°21' W 089°41'0 0.0
2018-Apr-14 04:58N 21°21' W 089°41'0 0.0
2018-Apr-14 04:28N 21°21' W 089°41'0 0.0
2018-Apr-14 03:58N 21°21' W 089°41'0 0.0
2018-Apr-14 03:28N 21°21' W 089°41'0 0.0
2018-Apr-14 02:58N 21°21' W 089°41'0 0.0
2018-Apr-14 02:28N 21°21' W 089°41'0 0.0
2018-Apr-14 01:58N 21°21' W 089°41'0 0.0
2018-Apr-14 01:28N 21°21' W 089°41'0 0.0
2018-Apr-14 00:58N 21°21' W 089°41'0 0.0
2018-Apr-14 00:28N 21°21' W 089°41'0 0.0
2018-Apr-13 23:58N 21°21' W 089°41'0 0.0
2018-Apr-13 23:28N 21°21' W 089°41'0 0.0
2018-Apr-13 22:58N 21°21' W 089°41'0 0.0
2018-Apr-13 22:28N 21°21' W 089°41'0 0.0
2018-Apr-13 21:55N 21°21' W 089°41'0 0.0
2018-Apr-13 21:28N 21°21' W 089°41'0 0.0
2018-Apr-13 20:58N 21°21' W 089°41'0 0.0
2018-Apr-13 20:28N 21°21' W 089°41'0 0.0
2018-Apr-13 19:58N 21°21' W 089°41'0 0.0
2018-Apr-13 19:28N 21°21' W 089°41'0 0.0
2018-Apr-13 18:58N 21°21' W 089°41'0 0.0
2018-Apr-13 18:28N 21°21' W 089°41'1 1.5
2018-Apr-13 18:01N 21°21' W 089°41'3 6.3
2018-Apr-13 17:31N 21°24' W 089°42'1610.7
2018-Apr-13 16:01N 21°39' W 089°37'510.5
2018-Apr-13 15:31N 21°44' W 089°35'1510.4
2018-Apr-13 14:06N 21°57' W 089°29'410.3
2018-Apr-13 13:42N 22°01' W 089°27'510.3
2018-Apr-13 13:14N 22°06' W 089°25'910.3
2018-Apr-13 12:21N 22°14' W 089°21'410.5
2018-Apr-13 12:00N 22°17' W 089°20'  

Dump ship's entire track history